sensor_id;sensor_type;location;lat;lon;timestamp;P1;durP1;ratioP1;P2;durP2;ratioP2
16766;SDS011;8501;49.926;8.404;2022-11-21T00:00:18;2.97;;;1.60;;
16766;SDS011;8501;49.926;8.404;2022-11-21T00:02:44;6.93;;;1.90;;
16766;SDS011;8501;49.926;8.404;2022-11-21T00:05:09;4.90;;;1.50;;
16766;SDS011;8501;49.926;8.404;2022-11-21T00:07:35;4.80;;;1.40;;
16766;SDS011;8501;49.926;8.404;2022-11-21T00:10:01;4.70;;;1.37;;
16766;SDS011;8501;49.926;8.404;2022-11-21T00:12:26;3.70;;;1.60;;
16766;SDS011;8501;49.926;8.404;2022-11-21T00:14:52;2.30;;;1.30;;
16766;SDS011;8501;49.926;8.404;2022-11-21T00:17:17;2.13;;;1.30;;
16766;SDS011;8501;49.926;8.404;2022-11-21T00:19:43;3.83;;;1.57;;
16766;SDS011;8501;49.926;8.404;2022-11-21T00:22:09;1.70;;;1.20;;
16766;SDS011;8501;49.926;8.404;2022-11-21T00:24:34;3.03;;;1.37;;
16766;SDS011;8501;49.926;8.404;2022-11-21T00:27:00;4.03;;;1.50;;
16766;SDS011;8501;49.926;8.404;2022-11-21T00:29:25;3.90;;;1.60;;
16766;SDS011;8501;49.926;8.404;2022-11-21T00:31:51;6.10;;;1.73;;
16766;SDS011;8501;49.926;8.404;2022-11-21T00:34:17;4.90;;;1.90;;
16766;SDS011;8501;49.926;8.404;2022-11-21T00:36:42;5.03;;;1.87;;
16766;SDS011;8501;49.926;8.404;2022-11-21T00:39:08;6.27;;;1.97;;
16766;SDS011;8501;49.926;8.404;2022-11-21T00:41:33;8.20;;;2.30;;
16766;SDS011;8501;49.926;8.404;2022-11-21T00:43:59;5.43;;;2.00;;
16766;SDS011;8501;49.926;8.404;2022-11-21T00:46:24;7.53;;;2.10;;
16766;SDS011;8501;49.926;8.404;2022-11-21T00:48:50;6.17;;;2.13;;
16766;SDS011;8501;49.926;8.404;2022-11-21T00:51:15;5.20;;;2.10;;
16766;SDS011;8501;49.926;8.404;2022-11-21T00:53:41;11.37;;;2.50;;
16766;SDS011;8501;49.926;8.404;2022-11-21T00:56:07;8.73;;;2.40;;
16766;SDS011;8501;49.926;8.404;2022-11-21T00:58:32;9.07;;;2.80;;
16766;SDS011;8501;49.926;8.404;2022-11-21T01:01:02;8.33;;;2.87;;
16766;SDS011;8501;49.926;8.404;2022-11-21T01:03:32;4.90;;;2.50;;
16766;SDS011;8501;49.926;8.404;2022-11-21T01:06:00;6.03;;;2.60;;
16766;SDS011;8501;49.926;8.404;2022-11-21T01:08:30;5.10;;;2.87;;
16766;SDS011;8501;49.926;8.404;2022-11-21T01:10:56;8.23;;;3.03;;
16766;SDS011;8501;49.926;8.404;2022-11-21T01:13:25;7.77;;;2.67;;
16766;SDS011;8501;49.926;8.404;2022-11-21T01:15:51;6.70;;;2.90;;
16766;SDS011;8501;49.926;8.404;2022-11-21T01:18:16;6.47;;;2.53;;
16766;SDS011;8501;49.926;8.404;2022-11-21T01:20:42;9.90;;;2.80;;
16766;SDS011;8501;49.926;8.404;2022-11-21T01:23:07;8.90;;;2.80;;
16766;SDS011;8501;49.926;8.404;2022-11-21T01:25:33;7.73;;;2.97;;
16766;SDS011;8501;49.926;8.404;2022-11-21T01:27:59;8.97;;;3.40;;
16766;SDS011;8501;49.926;8.404;2022-11-21T01:30:25;12.33;;;3.13;;
16766;SDS011;8501;49.926;8.404;2022-11-21T01:32:50;7.40;;;2.60;;
16766;SDS011;8501;49.926;8.404;2022-11-21T01:35:16;9.23;;;2.90;;
16766;SDS011;8501;49.926;8.404;2022-11-21T01:37:45;7.63;;;3.20;;
16766;SDS011;8501;49.926;8.404;2022-11-21T01:40:12;9.47;;;2.83;;
16766;SDS011;8501;49.926;8.404;2022-11-21T01:48:21;10.90;;;3.10;;
16766;SDS011;8501;49.926;8.404;2022-11-21T01:50:55;9.93;;;2.70;;
16766;SDS011;8501;49.926;8.404;2022-11-21T01:53:26;11.83;;;3.13;;
16766;SDS011;8501;49.926;8.404;2022-11-21T01:55:52;7.77;;;2.63;;
16766;SDS011;8501;49.926;8.404;2022-11-21T01:58:18;7.37;;;2.47;;
16766;SDS011;8501;49.926;8.404;2022-11-21T02:00:45;11.17;;;3.00;;
16766;SDS011;8501;49.926;8.404;2022-11-21T02:03:12;8.20;;;2.77;;
16766;SDS011;8501;49.926;8.404;2022-11-21T02:05:41;6.30;;;2.67;;
16766;SDS011;8501;49.926;8.404;2022-11-21T02:08:09;10.00;;;3.10;;
16766;SDS011;8501;49.926;8.404;2022-11-21T02:10:40;6.20;;;2.70;;
16766;SDS011;8501;49.926;8.404;2022-11-21T02:13:13;10.20;;;3.30;;
16766;SDS011;8501;49.926;8.404;2022-11-21T02:15:39;8.43;;;2.50;;
16766;SDS011;8501;49.926;8.404;2022-11-21T02:18:07;8.83;;;2.80;;
16766;SDS011;8501;49.926;8.404;2022-11-21T02:20:33;8.00;;;2.70;;
16766;SDS011;8501;49.926;8.404;2022-11-21T02:25:36;11.87;;;2.87;;
16766;SDS011;8501;49.926;8.404;2022-11-21T02:28:07;10.13;;;2.50;;
16766;SDS011;8501;49.926;8.404;2022-11-21T02:30:36;9.03;;;2.97;;
16766;SDS011;8501;49.926;8.404;2022-11-21T02:33:03;13.07;;;2.73;;
16766;SDS011;8501;49.926;8.404;2022-11-21T02:35:29;7.17;;;2.80;;
16766;SDS011;8501;49.926;8.404;2022-11-21T02:38:03;7.47;;;2.60;;
16766;SDS011;8501;49.926;8.404;2022-11-21T02:40:41;6.90;;;2.33;;
16766;SDS011;8501;49.926;8.404;2022-11-21T02:43:20;5.90;;;2.50;;
16766;SDS011;8501;49.926;8.404;2022-11-21T02:45:48;7.50;;;2.30;;
16766;SDS011;8501;49.926;8.404;2022-11-21T02:48:14;7.73;;;2.90;;
16766;SDS011;8501;49.926;8.404;2022-11-21T02:50:41;7.83;;;2.47;;
16766;SDS011;8501;49.926;8.404;2022-11-21T02:53:11;7.83;;;2.90;;
16766;SDS011;8501;49.926;8.404;2022-11-21T02:55:38;5.07;;;3.23;;
16766;SDS011;8501;49.926;8.404;2022-11-21T02:58:04;8.03;;;2.37;;
16766;SDS011;8501;49.926;8.404;2022-11-21T03:00:30;6.63;;;2.60;;
16766;SDS011;8501;49.926;8.404;2022-11-21T03:02:56;9.43;;;2.80;;
16766;SDS011;8501;49.926;8.404;2022-11-21T03:05:22;5.87;;;2.57;;
16766;SDS011;8501;49.926;8.404;2022-11-21T03:07:48;8.27;;;2.60;;
16766;SDS011;8501;49.926;8.404;2022-11-21T03:10:14;12.07;;;2.90;;
16766;SDS011;8501;49.926;8.404;2022-11-21T03:12:40;7.90;;;2.37;;
16766;SDS011;8501;49.926;8.404;2022-11-21T03:15:07;6.40;;;2.33;;
16766;SDS011;8501;49.926;8.404;2022-11-21T03:17:35;5.67;;;2.17;;
16766;SDS011;8501;49.926;8.404;2022-11-21T03:20:01;6.63;;;3.03;;
16766;SDS011;8501;49.926;8.404;2022-11-21T03:22:26;7.00;;;2.17;;
16766;SDS011;8501;49.926;8.404;2022-11-21T03:24:52;6.57;;;2.20;;
16766;SDS011;8501;49.926;8.404;2022-11-21T03:27:18;6.57;;;2.43;;
16766;SDS011;8501;49.926;8.404;2022-11-21T03:29:43;4.57;;;1.87;;
16766;SDS011;8501;49.926;8.404;2022-11-21T03:32:09;6.47;;;2.20;;
16766;SDS011;8501;49.926;8.404;2022-11-21T03:34:35;6.00;;;1.90;;
16766;SDS011;8501;49.926;8.404;2022-11-21T03:37:00;7.10;;;2.37;;
16766;SDS011;8501;49.926;8.404;2022-11-21T03:39:26;8.73;;;2.10;;
16766;SDS011;8501;49.926;8.404;2022-11-21T03:41:53;6.27;;;1.80;;
16766;SDS011;8501;49.926;8.404;2022-11-21T03:44:18;5.03;;;2.00;;
16766;SDS011;8501;49.926;8.404;2022-11-21T03:46:44;5.77;;;1.83;;
16766;SDS011;8501;49.926;8.404;2022-11-21T03:49:11;8.47;;;2.00;;
16766;SDS011;8501;49.926;8.404;2022-11-21T03:51:38;7.37;;;1.73;;
16766;SDS011;8501;49.926;8.404;2022-11-21T03:54:04;5.87;;;1.90;;
16766;SDS011;8501;49.926;8.404;2022-11-21T03:56:30;4.20;;;1.80;;
16766;SDS011;8501;49.926;8.404;2022-11-21T03:58:56;5.03;;;2.20;;
16766;SDS011;8501;49.926;8.404;2022-11-21T04:01:22;3.70;;;1.73;;
16766;SDS011;8501;49.926;8.404;2022-11-21T04:03:48;5.43;;;1.70;;
16766;SDS011;8501;49.926;8.404;2022-11-21T04:06:14;4.87;;;2.10;;
16766;SDS011;8501;49.926;8.404;2022-11-21T04:08:41;3.40;;;1.30;;
16766;SDS011;8501;49.926;8.404;2022-11-21T04:11:07;4.50;;;1.60;;
16766;SDS011;8501;49.926;8.404;2022-11-21T04:13:33;3.87;;;1.57;;
16766;SDS011;8501;49.926;8.404;2022-11-21T04:15:58;3.40;;;1.60;;
16766;SDS011;8501;49.926;8.404;2022-11-21T04:18:24;3.83;;;1.63;;
16766;SDS011;8501;49.926;8.404;2022-11-21T04:20:56;4.53;;;1.60;;
16766;SDS011;8501;49.926;8.404;2022-11-21T04:23:22;4.40;;;1.40;;
16766;SDS011;8501;49.926;8.404;2022-11-21T04:25:48;4.40;;;1.50;;
16766;SDS011;8501;49.926;8.404;2022-11-21T04:28:14;3.57;;;1.80;;
16766;SDS011;8501;49.926;8.404;2022-11-21T04:30:39;3.63;;;1.70;;
16766;SDS011;8501;49.926;8.404;2022-11-21T04:33:05;3.73;;;1.83;;
16766;SDS011;8501;49.926;8.404;2022-11-21T04:35:30;5.30;;;1.63;;
16766;SDS011;8501;49.926;8.404;2022-11-21T04:37:56;6.63;;;2.33;;
16766;SDS011;8501;49.926;8.404;2022-11-21T04:40:21;4.17;;;2.10;;
16766;SDS011;8501;49.926;8.404;2022-11-21T04:42:47;5.60;;;2.73;;
16766;SDS011;8501;49.926;8.404;2022-11-21T04:45:13;3.13;;;2.10;;
16766;SDS011;8501;49.926;8.404;2022-11-21T04:47:41;5.03;;;2.27;;
16766;SDS011;8501;49.926;8.404;2022-11-21T04:50:08;6.53;;;2.27;;
16766;SDS011;8501;49.926;8.404;2022-11-21T04:52:35;4.47;;;2.10;;
16766;SDS011;8501;49.926;8.404;2022-11-21T04:55:01;4.07;;;1.80;;
16766;SDS011;8501;49.926;8.404;2022-11-21T04:57:28;2.67;;;1.60;;
16766;SDS011;8501;49.926;8.404;2022-11-21T04:59:55;3.73;;;1.67;;
16766;SDS011;8501;49.926;8.404;2022-11-21T05:02:21;5.83;;;1.97;;
16766;SDS011;8501;49.926;8.404;2022-11-21T05:04:47;4.83;;;1.90;;
16766;SDS011;8501;49.926;8.404;2022-11-21T05:07:13;3.20;;;2.07;;
16766;SDS011;8501;49.926;8.404;2022-11-21T05:09:39;5.03;;;1.70;;
16766;SDS011;8501;49.926;8.404;2022-11-21T05:12:04;6.80;;;2.20;;
16766;SDS011;8501;49.926;8.404;2022-11-21T05:14:49;3.97;;;2.07;;
16766;SDS011;8501;49.926;8.404;2022-11-21T05:17:14;7.90;;;2.00;;
16766;SDS011;8501;49.926;8.404;2022-11-21T05:19:41;6.07;;;1.70;;
16766;SDS011;8501;49.926;8.404;2022-11-21T05:22:06;6.83;;;1.90;;
16766;SDS011;8501;49.926;8.404;2022-11-21T05:24:32;3.20;;;1.80;;
16766;SDS011;8501;49.926;8.404;2022-11-21T05:26:57;4.03;;;1.90;;
16766;SDS011;8501;49.926;8.404;2022-11-21T05:29:23;3.07;;;1.60;;
16766;SDS011;8501;49.926;8.404;2022-11-21T05:31:48;3.93;;;1.90;;
16766;SDS011;8501;49.926;8.404;2022-11-21T05:34:14;3.53;;;1.83;;
16766;SDS011;8501;49.926;8.404;2022-11-21T05:36:39;3.80;;;1.90;;
16766;SDS011;8501;49.926;8.404;2022-11-21T05:39:05;3.90;;;1.50;;
16766;SDS011;8501;49.926;8.404;2022-11-21T05:41:31;5.27;;;1.87;;
16766;SDS011;8501;49.926;8.404;2022-11-21T05:43:56;4.27;;;1.70;;
16766;SDS011;8501;49.926;8.404;2022-11-21T05:46:22;5.47;;;1.70;;
16766;SDS011;8501;49.926;8.404;2022-11-21T05:48:49;3.77;;;1.80;;
16766;SDS011;8501;49.926;8.404;2022-11-21T05:51:16;3.00;;;1.73;;
16766;SDS011;8501;49.926;8.404;2022-11-21T05:53:43;3.23;;;1.70;;
16766;SDS011;8501;49.926;8.404;2022-11-21T05:56:10;4.27;;;1.67;;
16766;SDS011;8501;49.926;8.404;2022-11-21T05:58:38;3.60;;;1.80;;
16766;SDS011;8501;49.926;8.404;2022-11-21T06:01:05;2.37;;;1.60;;
16766;SDS011;8501;49.926;8.404;2022-11-21T06:03:33;4.97;;;1.90;;
16766;SDS011;8501;49.926;8.404;2022-11-21T06:06:11;5.37;;;1.30;;
16766;SDS011;8501;49.926;8.404;2022-11-21T06:11:04;3.67;;;1.40;;
16766;SDS011;8501;49.926;8.404;2022-11-21T06:13:30;2.97;;;1.50;;
16766;SDS011;8501;49.926;8.404;2022-11-21T06:18:35;2.27;;;1.60;;
16766;SDS011;8501;49.926;8.404;2022-11-21T06:21:02;4.67;;;1.60;;
16766;SDS011;8501;49.926;8.404;2022-11-21T06:23:29;4.80;;;1.60;;
16766;SDS011;8501;49.926;8.404;2022-11-21T06:25:58;2.57;;;1.40;;
16766;SDS011;8501;49.926;8.404;2022-11-21T06:28:25;2.23;;;1.50;;
16766;SDS011;8501;49.926;8.404;2022-11-21T06:30:53;2.20;;;1.40;;
16766;SDS011;8501;49.926;8.404;2022-11-21T06:33:19;3.13;;;1.40;;
16766;SDS011;8501;49.926;8.404;2022-11-21T06:35:44;3.70;;;1.90;;
16766;SDS011;8501;49.926;8.404;2022-11-21T06:38:10;4.03;;;1.30;;
16766;SDS011;8501;49.926;8.404;2022-11-21T06:40:42;3.23;;;1.40;;
16766;SDS011;8501;49.926;8.404;2022-11-21T06:43:08;2.37;;;1.30;;
16766;SDS011;8501;49.926;8.404;2022-11-21T06:45:33;4.20;;;1.57;;
16766;SDS011;8501;49.926;8.404;2022-11-21T06:48:02;2.73;;;1.50;;
16766;SDS011;8501;49.926;8.404;2022-11-21T06:50:28;3.63;;;1.30;;
16766;SDS011;8501;49.926;8.404;2022-11-21T06:52:56;2.20;;;1.43;;
16766;SDS011;8501;49.926;8.404;2022-11-21T06:55:23;3.60;;;1.40;;
16766;SDS011;8501;49.926;8.404;2022-11-21T06:57:50;1.63;;;1.33;;
16766;SDS011;8501;49.926;8.404;2022-11-21T07:00:16;1.60;;;1.20;;
16766;SDS011;8501;49.926;8.404;2022-11-21T07:02:41;2.73;;;1.70;;
16766;SDS011;8501;49.926;8.404;2022-11-21T07:05:07;3.63;;;1.67;;
16766;SDS011;8501;49.926;8.404;2022-11-21T07:07:33;4.07;;;1.43;;
16766;SDS011;8501;49.926;8.404;2022-11-21T07:09:58;2.97;;;1.43;;
16766;SDS011;8501;49.926;8.404;2022-11-21T07:12:24;3.33;;;1.50;;
16766;SDS011;8501;49.926;8.404;2022-11-21T07:15:09;1.57;;;1.20;;
16766;SDS011;8501;49.926;8.404;2022-11-21T07:17:35;3.67;;;1.83;;
16766;SDS011;8501;49.926;8.404;2022-11-21T07:20:00;2.80;;;1.50;;
16766;SDS011;8501;49.926;8.404;2022-11-21T07:22:26;2.80;;;1.40;;
16766;SDS011;8501;49.926;8.404;2022-11-21T07:24:51;4.03;;;1.50;;
16766;SDS011;8501;49.926;8.404;2022-11-21T07:27:17;1.50;;;1.40;;
16766;SDS011;8501;49.926;8.404;2022-11-21T07:29:42;4.60;;;2.00;;
16766;SDS011;8501;49.926;8.404;2022-11-21T07:32:08;2.37;;;1.70;;
16766;SDS011;8501;49.926;8.404;2022-11-21T07:34:33;4.30;;;2.47;;
16766;SDS011;8501;49.926;8.404;2022-11-21T07:36:59;3.23;;;2.33;;
16766;SDS011;8501;49.926;8.404;2022-11-21T07:39:25;5.63;;;2.83;;
16766;SDS011;8501;49.926;8.404;2022-11-21T07:41:50;5.67;;;2.80;;
16766;SDS011;8501;49.926;8.404;2022-11-21T07:44:16;5.77;;;3.60;;
16766;SDS011;8501;49.926;8.404;2022-11-21T07:46:41;10.63;;;6.20;;
16766;SDS011;8501;49.926;8.404;2022-11-21T07:49:07;10.80;;;6.10;;
16766;SDS011;8501;49.926;8.404;2022-11-21T07:51:32;9.10;;;5.43;;
16766;SDS011;8501;49.926;8.404;2022-11-21T07:53:58;7.57;;;4.77;;
16766;SDS011;8501;49.926;8.404;2022-11-21T07:56:23;7.80;;;4.23;;
16766;SDS011;8501;49.926;8.404;2022-11-21T07:58:50;6.07;;;3.47;;
16766;SDS011;8501;49.926;8.404;2022-11-21T08:01:17;6.37;;;2.20;;
16766;SDS011;8501;49.926;8.404;2022-11-21T08:03:42;5.17;;;2.00;;
16766;SDS011;8501;49.926;8.404;2022-11-21T08:06:08;4.40;;;2.50;;
16766;SDS011;8501;49.926;8.404;2022-11-21T08:08:36;4.50;;;2.03;;
16766;SDS011;8501;49.926;8.404;2022-11-21T08:11:05;2.83;;;1.90;;
16766;SDS011;8501;49.926;8.404;2022-11-21T08:13:32;4.87;;;2.30;;
16766;SDS011;8501;49.926;8.404;2022-11-21T08:15:58;3.77;;;2.33;;
16766;SDS011;8501;49.926;8.404;2022-11-21T08:18:23;3.97;;;2.10;;
16766;SDS011;8501;49.926;8.404;2022-11-21T08:20:49;2.70;;;1.90;;
16766;SDS011;8501;49.926;8.404;2022-11-21T08:23:14;5.77;;;2.33;;
16766;SDS011;8501;49.926;8.404;2022-11-21T08:25:40;2.87;;;1.90;;
16766;SDS011;8501;49.926;8.404;2022-11-21T08:28:07;3.57;;;1.90;;
16766;SDS011;8501;49.926;8.404;2022-11-21T08:30:34;4.23;;;1.90;;
16766;SDS011;8501;49.926;8.404;2022-11-21T08:33:00;4.07;;;1.93;;
16766;SDS011;8501;49.926;8.404;2022-11-21T08:35:26;4.97;;;2.40;;
16766;SDS011;8501;49.926;8.404;2022-11-21T08:37:57;3.90;;;2.57;;
16766;SDS011;8501;49.926;8.404;2022-11-21T08:40:26;3.37;;;2.30;;
16766;SDS011;8501;49.926;8.404;2022-11-21T08:42:56;5.00;;;2.00;;
16766;SDS011;8501;49.926;8.404;2022-11-21T08:45:22;2.63;;;2.07;;
16766;SDS011;8501;49.926;8.404;2022-11-21T08:47:48;6.40;;;3.20;;
16766;SDS011;8501;49.926;8.404;2022-11-21T08:50:14;3.60;;;2.10;;
16766;SDS011;8501;49.926;8.404;2022-11-21T08:52:40;45.83;;;21.50;;
16766;SDS011;8501;49.926;8.404;2022-11-21T08:55:05;22.23;;;10.23;;
16766;SDS011;8501;49.926;8.404;2022-11-21T08:57:36;85.40;;;33.93;;
16766;SDS011;8501;49.926;8.404;2022-11-21T09:00:02;21.13;;;9.97;;
16766;SDS011;8501;49.926;8.404;2022-11-21T09:02:28;43.53;;;16.07;;
16766;SDS011;8501;49.926;8.404;2022-11-21T09:04:54;13.73;;;6.30;;
16766;SDS011;8501;49.926;8.404;2022-11-21T09:07:19;6.53;;;4.10;;
16766;SDS011;8501;49.926;8.404;2022-11-21T09:09:45;10.90;;;5.07;;
16766;SDS011;8501;49.926;8.404;2022-11-21T09:12:10;5.60;;;3.63;;
16766;SDS011;8501;49.926;8.404;2022-11-21T09:14:36;11.13;;;6.63;;
16766;SDS011;8501;49.926;8.404;2022-11-21T09:17:20;17.40;;;9.47;;
16766;SDS011;8501;49.926;8.404;2022-11-21T09:20:04;4.37;;;2.93;;
16766;SDS011;8501;49.926;8.404;2022-11-21T09:22:30;13.27;;;7.80;;
16766;SDS011;8501;49.926;8.404;2022-11-21T09:24:55;6.60;;;3.93;;
16766;SDS011;8501;49.926;8.404;2022-11-21T09:27:20;7.47;;;4.33;;
16766;SDS011;8501;49.926;8.404;2022-11-21T09:29:46;8.50;;;5.13;;
16766;SDS011;8501;49.926;8.404;2022-11-21T09:32:12;10.20;;;6.37;;
16766;SDS011;8501;49.926;8.404;2022-11-21T09:34:37;4.70;;;2.90;;
16766;SDS011;8501;49.926;8.404;2022-11-21T09:37:03;5.87;;;2.80;;
16766;SDS011;8501;49.926;8.404;2022-11-21T09:39:28;5.40;;;3.00;;
16766;SDS011;8501;49.926;8.404;2022-11-21T09:44:28;7.37;;;4.40;;
16766;SDS011;8501;49.926;8.404;2022-11-21T09:49:42;10.27;;;5.70;;
16766;SDS011;8501;49.926;8.404;2022-11-21T09:52:10;10.00;;;8.00;;
16766;SDS011;8501;49.926;8.404;2022-11-21T09:54:41;5.23;;;4.00;;
16766;SDS011;8501;49.926;8.404;2022-11-21T09:57:16;4.23;;;1.90;;
16766;SDS011;8501;49.926;8.404;2022-11-21T09:59:45;4.23;;;2.17;;
16766;SDS011;8501;49.926;8.404;2022-11-21T10:02:16;2.47;;;1.60;;
16766;SDS011;8501;49.926;8.404;2022-11-21T10:04:44;4.10;;;1.83;;
16766;SDS011;8501;49.926;8.404;2022-11-21T10:07:19;6.23;;;2.90;;
16766;SDS011;8501;49.926;8.404;2022-11-21T10:10:02;5.17;;;2.20;;
16766;SDS011;8501;49.926;8.404;2022-11-21T10:13:01;3.87;;;2.70;;
16766;SDS011;8501;49.926;8.404;2022-11-21T10:26:58;6.87;;;2.77;;
16766;SDS011;8501;49.926;8.404;2022-11-21T10:29:33;5.30;;;3.10;;
16766;SDS011;8501;49.926;8.404;2022-11-21T10:32:17;4.57;;;2.43;;
16766;SDS011;8501;49.926;8.404;2022-11-21T10:34:48;4.17;;;2.27;;
16766;SDS011;8501;49.926;8.404;2022-11-21T10:37:30;5.30;;;2.63;;
16766;SDS011;8501;49.926;8.404;2022-11-21T10:40:17;7.07;;;3.80;;
16766;SDS011;8501;49.926;8.404;2022-11-21T10:46:08;8.47;;;6.20;;
16766;SDS011;8501;49.926;8.404;2022-11-21T10:48:34;6.93;;;4.00;;
16766;SDS011;8501;49.926;8.404;2022-11-21T10:53:38;4.70;;;1.70;;
16766;SDS011;8501;49.926;8.404;2022-11-21T10:56:22;4.43;;;3.30;;
16766;SDS011;8501;49.926;8.404;2022-11-21T10:58:51;4.80;;;2.13;;
16766;SDS011;8501;49.926;8.404;2022-11-21T11:01:31;4.77;;;1.83;;
16766;SDS011;8501;49.926;8.404;2022-11-21T11:06:35;3.20;;;1.60;;
16766;SDS011;8501;49.926;8.404;2022-11-21T11:09:02;3.37;;;1.73;;
16766;SDS011;8501;49.926;8.404;2022-11-21T11:11:28;4.10;;;1.53;;
16766;SDS011;8501;49.926;8.404;2022-11-21T11:14:00;3.47;;;2.00;;
16766;SDS011;8501;49.926;8.404;2022-11-21T11:16:34;6.67;;;2.20;;
16766;SDS011;8501;49.926;8.404;2022-11-21T11:24:26;3.47;;;1.70;;
16766;SDS011;8501;49.926;8.404;2022-11-21T11:26:54;6.40;;;1.70;;
16766;SDS011;8501;49.926;8.404;2022-11-21T11:29:28;4.00;;;1.57;;
16766;SDS011;8501;49.926;8.404;2022-11-21T11:34:21;3.60;;;1.53;;
16766;SDS011;8501;49.926;8.404;2022-11-21T11:36:53;4.23;;;1.77;;
16766;SDS011;8501;49.926;8.404;2022-11-21T11:39:25;3.80;;;1.70;;
16766;SDS011;8501;49.926;8.404;2022-11-21T11:50:40;3.43;;;1.60;;
16766;SDS011;8501;49.926;8.404;2022-11-21T11:56:04;5.87;;;2.23;;
16766;SDS011;8501;49.926;8.404;2022-11-21T12:01:30;4.77;;;1.47;;
16766;SDS011;8501;49.926;8.404;2022-11-21T12:04:15;3.23;;;1.50;;
16766;SDS011;8501;49.926;8.404;2022-11-21T12:07:16;5.93;;;2.00;;
16766;SDS011;8501;49.926;8.404;2022-11-21T12:12:40;5.77;;;1.80;;
16766;SDS011;8501;49.926;8.404;2022-11-21T12:15:20;3.63;;;1.70;;
16766;SDS011;8501;49.926;8.404;2022-11-21T12:23:38;7.33;;;2.00;;
16766;SDS011;8501;49.926;8.404;2022-11-21T12:48:03;10.87;;;4.87;;
16766;SDS011;8501;49.926;8.404;2022-11-21T12:51:23;8.30;;;3.20;;
16766;SDS011;8501;49.926;8.404;2022-11-21T12:59:27;4.27;;;1.90;;
16766;SDS011;8501;49.926;8.404;2022-11-21T13:02:04;6.33;;;2.00;;
16766;SDS011;8501;49.926;8.404;2022-11-21T13:04:52;6.73;;;2.20;;
16766;SDS011;8501;49.926;8.404;2022-11-21T13:07:21;6.10;;;2.00;;
16766;SDS011;8501;49.926;8.404;2022-11-21T13:09:50;4.43;;;2.60;;
16766;SDS011;8501;49.926;8.404;2022-11-21T13:17:48;5.37;;;2.20;;
16766;SDS011;8501;49.926;8.404;2022-11-21T13:20:23;4.90;;;1.90;;
16766;SDS011;8501;49.926;8.404;2022-11-21T13:22:54;5.93;;;1.90;;
16766;SDS011;8501;49.926;8.404;2022-11-21T13:30:55;6.17;;;2.07;;
16766;SDS011;8501;49.926;8.404;2022-11-21T13:36:09;6.37;;;2.47;;
16766;SDS011;8501;49.926;8.404;2022-11-21T13:44:28;5.23;;;2.77;;
16766;SDS011;8501;49.926;8.404;2022-11-21T13:49:38;5.77;;;2.30;;
16766;SDS011;8501;49.926;8.404;2022-11-21T13:57:50;7.63;;;3.47;;
16766;SDS011;8501;49.926;8.404;2022-11-21T14:08:40;8.17;;;2.87;;
16766;SDS011;8501;49.926;8.404;2022-11-21T14:11:20;8.20;;;3.10;;
16766;SDS011;8501;49.926;8.404;2022-11-21T14:13:58;9.00;;;3.20;;
16766;SDS011;8501;49.926;8.404;2022-11-21T14:16:38;6.33;;;3.00;;
16766;SDS011;8501;49.926;8.404;2022-11-21T14:19:12;7.43;;;2.50;;
16766;SDS011;8501;49.926;8.404;2022-11-21T14:21:43;7.47;;;2.70;;
16766;SDS011;8501;49.926;8.404;2022-11-21T14:24:16;8.03;;;3.20;;
16766;SDS011;8501;49.926;8.404;2022-11-21T14:26:44;5.50;;;2.77;;
16766;SDS011;8501;49.926;8.404;2022-11-21T14:29:15;5.97;;;2.70;;
16766;SDS011;8501;49.926;8.404;2022-11-21T14:31:47;12.43;;;2.90;;
16766;SDS011;8501;49.926;8.404;2022-11-21T14:34:22;5.63;;;2.80;;
16766;SDS011;8501;49.926;8.404;2022-11-21T14:36:56;9.73;;;3.10;;
16766;SDS011;8501;49.926;8.404;2022-11-21T14:39:25;6.23;;;3.77;;
16766;SDS011;8501;49.926;8.404;2022-11-21T14:41:55;8.63;;;4.20;;
16766;SDS011;8501;49.926;8.404;2022-11-21T14:44:24;9.43;;;4.40;;
16766;SDS011;8501;49.926;8.404;2022-11-21T14:46:50;9.53;;;3.93;;
16766;SDS011;8501;49.926;8.404;2022-11-21T14:49:49;7.63;;;3.30;;
16766;SDS011;8501;49.926;8.404;2022-11-21T14:52:17;6.63;;;3.17;;
16766;SDS011;8501;49.926;8.404;2022-11-21T14:54:57;5.00;;;3.20;;
16766;SDS011;8501;49.926;8.404;2022-11-21T14:57:29;6.40;;;3.10;;
16766;SDS011;8501;49.926;8.404;2022-11-21T14:59:58;12.93;;;3.87;;
16766;SDS011;8501;49.926;8.404;2022-11-21T15:02:25;11.33;;;3.13;;
16766;SDS011;8501;49.926;8.404;2022-11-21T15:04:53;7.07;;;3.63;;
16766;SDS011;8501;49.926;8.404;2022-11-21T15:07:28;10.17;;;3.70;;
16766;SDS011;8501;49.926;8.404;2022-11-21T15:09:59;9.67;;;4.23;;
16766;SDS011;8501;49.926;8.404;2022-11-21T15:12:27;9.00;;;4.23;;
16766;SDS011;8501;49.926;8.404;2022-11-21T15:17:48;8.93;;;4.93;;
16766;SDS011;8501;49.926;8.404;2022-11-21T15:20:20;9.47;;;4.43;;
16766;SDS011;8501;49.926;8.404;2022-11-21T15:22:46;8.10;;;4.37;;
16766;SDS011;8501;49.926;8.404;2022-11-21T15:27:42;14.27;;;7.17;;
16766;SDS011;8501;49.926;8.404;2022-11-21T15:41:38;11.70;;;4.90;;
16766;SDS011;8501;49.926;8.404;2022-11-21T15:43:46;10.83;;;4.50;;
16766;SDS011;8501;49.926;8.404;2022-11-21T15:46:35;8.93;;;3.90;;
16766;SDS011;8501;49.926;8.404;2022-11-21T15:49:06;8.07;;;3.80;;
16766;SDS011;8501;49.926;8.404;2022-11-21T15:51:46;8.57;;;3.87;;
16766;SDS011;8501;49.926;8.404;2022-11-21T15:54:16;9.93;;;4.03;;
16766;SDS011;8501;49.926;8.404;2022-11-21T15:56:46;7.50;;;3.70;;
16766;SDS011;8501;49.926;8.404;2022-11-21T15:59:12;12.27;;;4.30;;
16766;SDS011;8501;49.926;8.404;2022-11-21T16:01:39;8.97;;;4.20;;
16766;SDS011;8501;49.926;8.404;2022-11-21T16:04:06;9.67;;;4.03;;
16766;SDS011;8501;49.926;8.404;2022-11-21T16:06:33;10.83;;;4.17;;
16766;SDS011;8501;49.926;8.404;2022-11-21T16:08:59;7.93;;;4.27;;
16766;SDS011;8501;49.926;8.404;2022-11-21T16:11:27;11.37;;;5.63;;
16766;SDS011;8501;49.926;8.404;2022-11-21T16:14:04;14.53;;;8.37;;
16766;SDS011;8501;49.926;8.404;2022-11-21T16:16:38;8.63;;;5.73;;
16766;SDS011;8501;49.926;8.404;2022-11-21T16:19:05;15.07;;;5.60;;
16766;SDS011;8501;49.926;8.404;2022-11-21T16:21:31;11.67;;;6.30;;
16766;SDS011;8501;49.926;8.404;2022-11-21T16:23:57;11.23;;;6.13;;
16766;SDS011;8501;49.926;8.404;2022-11-21T16:26:22;14.40;;;7.67;;
16766;SDS011;8501;49.926;8.404;2022-11-21T16:28:54;18.17;;;9.87;;
16766;SDS011;8501;49.926;8.404;2022-11-21T16:31:25;13.80;;;9.17;;
16766;SDS011;8501;49.926;8.404;2022-11-21T16:33:54;22.00;;;11.47;;
16766;SDS011;8501;49.926;8.404;2022-11-21T16:36:24;17.20;;;10.57;;
16766;SDS011;8501;49.926;8.404;2022-11-21T16:38:51;19.23;;;9.47;;
16766;SDS011;8501;49.926;8.404;2022-11-21T16:41:17;19.50;;;11.60;;
16766;SDS011;8501;49.926;8.404;2022-11-21T16:43:46;24.73;;;12.23;;
16766;SDS011;8501;49.926;8.404;2022-11-21T16:46:17;29.60;;;13.60;;
16766;SDS011;8501;49.926;8.404;2022-11-21T16:48:44;30.20;;;12.23;;
16766;SDS011;8501;49.926;8.404;2022-11-21T16:51:10;20.90;;;10.23;;
16766;SDS011;8501;49.926;8.404;2022-11-21T16:53:38;18.73;;;10.20;;
16766;SDS011;8501;49.926;8.404;2022-11-21T16:56:04;16.13;;;9.13;;
16766;SDS011;8501;49.926;8.404;2022-11-21T16:58:30;20.07;;;10.57;;
16766;SDS011;8501;49.926;8.404;2022-11-21T17:00:56;21.33;;;12.30;;
16766;SDS011;8501;49.926;8.404;2022-11-21T17:03:21;18.87;;;10.30;;
16766;SDS011;8501;49.926;8.404;2022-11-21T17:06:05;15.03;;;7.63;;
16766;SDS011;8501;49.926;8.404;2022-11-21T17:08:32;16.60;;;7.87;;
16766;SDS011;8501;49.926;8.404;2022-11-21T17:11:09;12.47;;;7.40;;
16766;SDS011;8501;49.926;8.404;2022-11-21T17:13:46;12.77;;;7.43;;
16766;SDS011;8501;49.926;8.404;2022-11-21T17:16:13;13.77;;;8.23;;
16766;SDS011;8501;49.926;8.404;2022-11-21T17:18:39;14.93;;;8.63;;
16766;SDS011;8501;49.926;8.404;2022-11-21T17:21:06;14.37;;;8.40;;
16766;SDS011;8501;49.926;8.404;2022-11-21T17:23:34;15.17;;;9.07;;
16766;SDS011;8501;49.926;8.404;2022-11-21T17:26:02;18.10;;;9.10;;
16766;SDS011;8501;49.926;8.404;2022-11-21T17:28:29;15.70;;;8.30;;
16766;SDS011;8501;49.926;8.404;2022-11-21T17:30:55;18.93;;;10.07;;
16766;SDS011;8501;49.926;8.404;2022-11-21T17:33:21;15.63;;;9.43;;
16766;SDS011;8501;49.926;8.404;2022-11-21T17:35:47;20.53;;;11.57;;